Terminal Aerodrome Forecast
Issued by NWS Spokane, WA

Home | Current Version | Previous Version | Text Only | Print | Product List | Glossary On
Versions: 1 2 3 4 5 6 7 8 9 10 11 12 13 14 15 16 17 18 19 20 21 22 23 24 25 26
000
FTUS46 KOTX 151125
TAFGEG
TAF
KGEG 151125Z 1512/1612 00000KT 6SM -SN BR FEW002 OVC004
      TEMPO 1512/1516 2SM -SN BR OVC005
     FM151800 20004KT 3/4SM -SN BR OVC003
     FM160200 23005KT 3SM BR BKN009=

USA.gov is the U.S. government's official web portal to all federal, state and local government web resources and services.